ENTC/TOS METAR and TAF weather

Enter ICAO airport designator
Station Type Date Time Source
ENTC METAR 2021/07/29 19:20 UTC NOAA

ENTC 291920Z 02015KT CAVOK 10/07 Q1001 NOSIG RMK WIND 2600FT 09009KT


Station Type Date Time Source
ENTC Decoded METAR 2021/07/29 19:20 UTC NOAA

Tromso / Langnes, Norway (ENTC) 69-41N 018-55E 10M
Jul 29, 2021 - 03:20 PM EDT / 2021.07.29 1920 UTC
Wind: from the NNE (020 degrees) at 17 MPH (15 KT):0
Visibility: greater than 7 mile(s):0
Temperature: 50 F (10 C)
Dew Point: 44 F (7 C)
Relative Humidity: 81%
Pressure (altimeter): 29.56 in. Hg (1001 hPa)
ob: ENTC 291920Z 02015KT CAVOK 10/07 Q1001 NOSIG RMK WIND 2600FT 09009KT
cycle: 19

Station Type Date Time Source
ENTC TAF 2021/07/29 18:57 UTC NOAA

TAF ENTC 291700Z 2918/3018 03012KT 9999 FEW040 PROB40 2919/3006 BKN014

Example: see airport list